Devonia, Tennessee
Current Conditions -  °F | °C
As of 7:22 PM on Sunday 23 Nov 2014 (Local Time) from KOQT Reporting Station
Scattered Clouds Scattered Clouds  
Wind Chill: 54°   Ceiling: Unl
Heat Index: 54°   Visibility: 7mi
Dew Point: 53°   Wind: 0mph
Humidity: 97%   Direction: NA
Pressure: 29.57"   Gusts: NA
Location:  36.1665°N, 84.3051°W
Report Text: KOQT 240022Z AUTO 00000KT 7SM FEW001 FEW026 SCT100 12/12 A2957 RMK AO2 RAE17 P0002 T01220117
Loading
Personal Weather Stations






























Interactive Weather Map New forecast layout! Learn more

10-Day Weather Forecast

Advertisements
Track Severe Weather on mobile